Airfield :
LOGIN :

Register | Disclaimer

   EN    FR    IT 

 










Legend :    VFR   Marginal VFR   IFR   Intensive IFR   Very Intensive IFR
Visi :
Ceiling :
>= 8 km
>= 3000ft
5 to 8 km
1000 to 3000 ft
1500m to 5 km
500 to 1000 ft
800 to 1500m
200 to 500 ft
< 800m
< 200 ft
Symbols :   Thunderstorms  Fog  Heavy snow  Heavy precipitations  Wind > 20 kt
SIGMETs :     Misc.  Thunderstorms  Icing  Turbulence  Mountain Waves  Volcanic Ashes







- Airport Elevation : 325 ft
- IATA code : BES
- Download approach charts


LFRB - Brest

CURRENT METAR :
  • 180730Z AUTO 26016KT 230V290 6000 OVC005/// 11/11 Q1010 BECMG 25020G31KT 4000 -RA BR

EXPIRED METARs :
  • 180700Z AUTO 26015G28KT 5000 DZ BR OVC005/// 11/11 Q1010 NOSIG
  • 180630Z AUTO 26018G28KT 4500 -RA BR OVC005/// 11/11 Q1010 NOSIG
  • 180600Z AUTO 26018G28KT 240V300 3500 -RA BR OVC004/// 11/11 Q1010 BECMG OVC005
  • 180530Z AUTO 26018G29KT 230V290 3900 -RA BR OVC004/// 11/11 Q1010 BECMG OVC005
  • 180500Z AUTO 26021KT 230V290 3300 -RA BR OVC005/// 11/11 Q1010 BECMG 25020G32KT 6000 -RA OVC011

TAF TAF LFRB
Valid from the 18 at 06:00 until the 19 at 12:00 UTC


180500Z 1806/1912 25020G31KT 4000 -RA BR OVC005
TEMPO 1812/1906 4000 SHRA BKN017TCU
TEMPO 1900/1903 3000 SHGS FEW012CB BKN017
BECMG 1903/1906 20011KT
ATIS : +33 2 98 32 02 71
No reported NOTAMs for that airfield.
1 SIGMET reported for the Brest FIR (LFRR) :
 
Severe turbulence
LFRR SIGMET 2 VALID 180600/180900 LFPW
LFRR BREST FIR/UIR SEV TURB FCST N OF LINE N4715 W00015 - N4645 W00800 SFC/FL060 STNR NC=



MET'MAP, your aeronautical weather chart ! - Copyright ORBIFLY December 2007 - Disclaimer

ORBIFLY MET'MAP TEAM :

Programming & Development : Alexandra Zaïnal
Concept & Development : Baudouin d'Aumeries
Co-Development & Prog : Marc-Olivier Méhu
Technical & hardware support : Manuel Goepfert

Contact : metmap@orbifly.com




SOURCES & CREDITS :

   NOAA